Time,TemperatureF,DewpointF,PressureIn,WindDirection,WindDirectionDegrees,WindSpeedMPH,WindSpeedGustMPH,Humidity,HourlyPrecipIn,Conditions,Clouds,dailyrainin,SoftwareType,DateUTC
2013-02-06 00:00:00,26.1,12.9,29.91,East,95,0.0,0.0,57,0.00,,---,0.00,VWS V14.01,2013-02-06 05:00:00,
2013-02-06 00:05:00,26.1,12.9,29.91,East,95,0.0,0.0,57,0.00,,---,0.00,VWS V14.01,2013-02-06 05:05:00,
2013-02-06 00:10:00,25.9,12.8,29.91,East,95,0.0,0.0,57,0.00,,---,0.00,VWS V14.01,2013-02-06 05:10:00,
2013-02-06 00:15:00,25.9,12.8,29.91,East,95,0.0,3.1,57,0.00,,---,0.00,VWS V14.01,2013-02-06 05:15:00,
2013-02-06 00:20:00,25.9,12.8,29.91,East,95,0.0,0.0,57,0.00,,---,0.00,VWS V14.01,2013-02-06 05:20:00,
2013-02-06 00:25:00,25.9,12.8,29.91,East,95,0.0,0.0,57,0.00,,---,0.00,VWS V14.01,2013-02-06 05:25:00,
2013-02-06 00:30:00,25.9,12.8,29.91,East,95,0.0,0.0,57,0.00,,---,0.00,VWS V14.01,2013-02-06 05:30:00,
2013-02-06 00:35:00,25.9,12.8,29.91,East,95,0.0,0.0,57,0.00,,---,0.00,VWS V14.01,2013-02-06 05:35:00,
2013-02-06 00:40:00,25.9,12.8,29.91,East,95,0.0,0.0,57,0.00,,---,0.00,VWS V14.01,2013-02-06 05:40:00,
2013-02-06 00:45:00,25.9,12.8,29.91,East,96,0.0,0.0,57,0.00,,---,0.00,VWS V14.01,2013-02-06 05:45:00,
2013-02-06 00:50:00,25.9,12.8,29.91,East,95,0.0,0.0,57,0.00,,---,0.00,VWS V14.01,2013-02-06 05:50:00,
2013-02-06 00:55:00,25.9,12.8,29.91,East,95,0.0,0.0,57,0.00,,---,0.00,VWS V14.01,2013-02-06 05:55:00,
2013-02-06 01:00:00,26.1,12.9,29.91,East,95,0.0,0.0,57,0.00,,---,0.00,VWS V14.01,2013-02-06 06:00:00,
2013-02-06 01:05:00,26.1,12.9,29.91,East,96,0.0,0.0,57,0.00,,---,0.00,VWS V14.01,2013-02-06 06:05:00,
2013-02-06 01:10:00,26.1,12.9,29.91,East,96,0.0,0.0,57,0.00,,---,0.00,VWS V14.01,2013-02-06 06:10:00,
2013-02-06 01:15:00,26.1,12.9,29.91,East,95,0.0,0.0,57,0.00,,---,0.00,VWS V14.01,2013-02-06 06:15:00,
2013-02-06 01:20:00,26.1,13.3,29.88,East,95,0.0,0.0,58,0.00,,---,0.00,VWS V14.01,2013-02-06 06:20:00,
2013-02-06 01:25:00,26.1,13.3,29.88,East,96,0.0,0.0,58,0.00,,---,0.00,VWS V14.01,2013-02-06 06:25:00,
2013-02-06 01:30:00,26.1,13.3,29.88,East,95,0.0,0.0,58,0.00,,---,0.00,VWS V14.01,2013-02-06 06:30:00,
2013-02-06 01:35:00,26.2,13.5,29.88,East,96,0.0,0.0,58,0.00,,---,0.00,VWS V14.01,2013-02-06 06:35:00,
2013-02-06 01:40:00,26.2,13.5,29.88,East,95,0.0,0.0,58,0.00,,---,0.00,VWS V14.01,2013-02-06 06:40:00,
2013-02-06 01:45:00,26.2,13.5,29.88,East,95,0.0,0.0,58,0.00,,---,0.00,VWS V14.01,2013-02-06 06:45:00,
2013-02-06 01:50:00,26.2,13.5,29.88,East,95,0.0,0.0,58,0.00,,---,0.00,VWS V14.01,2013-02-06 06:50:00,
2013-02-06 01:56:00,26.2,13.5,29.88,East,95,0.0,0.0,58,0.00,,---,0.00,VWS V14.01,2013-02-06 06:56:00,
2013-02-06 02:01:00,26.2,13.5,29.88,East,95,0.0,0.0,58,0.00,,---,0.00,VWS V14.01,2013-02-06 07:01:00,
2013-02-06 02:06:00,26.4,13.7,29.88,East,96,0.0,0.0,58,0.00,,---,0.00,VWS V14.01,2013-02-06 07:06:00,
2013-02-06 02:11:00,26.6,14.2,29.88,East,95,3.6,3.6,59,0.00,,---,0.00,VWS V14.01,2013-02-06 07:11:00,
2013-02-06 02:16:00,26.6,14.2,29.88,East,95,3.6,4.0,59,0.00,,---,0.00,VWS V14.01,2013-02-06 07:16:00,
2013-02-06 02:21:00,26.6,13.8,29.91,East,95,0.0,0.0,58,0.00,,---,0.00,VWS V14.01,2013-02-06 07:21:00,
2013-02-06 02:26:00,26.4,13.7,29.91,East,95,0.0,0.0,58,0.00,,---,0.00,VWS V14.01,2013-02-06 07:26:00,
2013-02-06 02:31:00,26.4,13.7,29.91,East,96,0.0,0.0,58,0.00,,---,0.00,VWS V14.01,2013-02-06 07:31:00,
2013-02-06 02:36:00,26.4,14.1,29.91,East,95,0.0,0.0,59,0.00,,---,0.00,VWS V14.01,2013-02-06 07:36:00,
2013-02-06 02:41:00,26.4,14.1,29.91,East,95,0.0,0.0,59,0.00,,---,0.00,VWS V14.01,2013-02-06 07:41:00,
2013-02-06 02:46:00,26.4,14.1,29.91,East,95,0.0,0.0,59,0.00,,---,0.00,VWS V14.01,2013-02-06 07:46:00,
2013-02-06 02:51:00,26.4,14.1,29.91,East,95,0.0,0.0,59,0.00,,---,0.00,VWS V14.01,2013-02-06 07:51:00,
2013-02-06 02:56:00,26.4,14.1,29.91,East,95,0.0,0.0,59,0.00,,---,0.00,VWS V14.01,2013-02-06 07:56:00,
2013-02-06 03:01:00,26.6,14.2,29.91,East,95,0.0,0.0,59,0.00,,---,0.00,VWS V14.01,2013-02-06 08:01:00,
2013-02-06 03:06:00,26.6,14.2,29.88,East,96,0.0,0.0,59,0.00,,---,0.00,VWS V14.01,2013-02-06 08:06:00,
2013-02-06 03:11:00,26.4,14.1,29.88,East,95,0.0,0.0,59,0.00,,---,0.00,VWS V14.01,2013-02-06 08:11:00,
2013-02-06 03:16:00,26.4,14.1,29.88,East,95,0.0,0.0,59,0.00,,---,0.00,VWS V14.01,2013-02-06 08:16:00,
2013-02-06 03:21:00,26.6,14.2,29.91,East,95,0.0,0.0,59,0.00,,---,0.00,VWS V14.01,2013-02-06 08:21:00,
2013-02-06 03:26:00,26.6,14.2,29.91,East,96,2.7,3.1,59,0.00,,---,0.00,VWS V14.01,2013-02-06 08:26:00,
2013-02-06 03:31:00,26.6,14.6,29.91,East,95,3.1,3.1,60,0.00,,---,0.00,VWS V14.01,2013-02-06 08:31:00,
2013-02-06 03:36:00,26.8,14.8,29.91,East,95,0.0,0.0,60,0.00,,---,0.00,VWS V14.01,2013-02-06 08:36:00,
2013-02-06 03:41:00,27.0,14.9,29.91,East,95,0.0,0.0,60,0.00,,---,0.00,VWS V14.01,2013-02-06 08:41:00,
2013-02-06 03:46:00,27.0,14.9,29.91,East,96,0.0,0.0,60,0.00,,---,0.00,VWS V14.01,2013-02-06 08:46:00,
2013-02-06 03:51:00,27.0,14.9,29.91,East,95,0.0,0.0,60,0.00,,---,0.00,VWS V14.01,2013-02-06 08:51:00,
2013-02-06 03:56:00,27.0,14.9,29.91,East,95,0.0,2.7,60,0.00,,---,0.00,VWS V14.01,2013-02-06 08:56:00,
2013-02-06 04:01:00,26.8,14.8,29.91,East,96,0.0,0.0,60,0.00,,---,0.00,VWS V14.01,2013-02-06 09:01:00,
2013-02-06 04:06:00,26.6,14.6,29.91,East,95,0.0,0.0,60,0.00,,---,0.00,VWS V14.01,2013-02-06 09:06:00,
2013-02-06 04:11:00,26.4,14.4,29.91,East,95,0.0,0.0,60,0.00,,---,0.00,VWS V14.01,2013-02-06 09:11:00,
2013-02-06 04:16:00,26.2,14.3,29.91,East,95,0.0,0.0,60,0.00,,---,0.00,VWS V14.01,2013-02-06 09:16:00,
2013-02-06 04:21:00,26.2,14.3,29.91,East,96,0.0,0.0,60,0.00,,---,0.00,VWS V14.01,2013-02-06 09:21:00,
2013-02-06 04:26:00,26.2,14.3,29.91,East,96,0.0,0.0,60,0.00,,---,0.00,VWS V14.01,2013-02-06 09:26:00,
2013-02-06 04:31:00,26.2,14.3,29.91,East,96,0.0,0.0,60,0.00,,---,0.00,VWS V14.01,2013-02-06 09:31:00,
2013-02-06 04:36:00,26.2,14.3,29.91,East,95,0.0,0.0,60,0.00,,---,0.00,VWS V14.01,2013-02-06 09:36:00,
2013-02-06 04:41:00,26.2,14.3,29.91,East,95,0.0,0.0,60,0.00,,---,0.00,VWS V14.01,2013-02-06 09:41:00,
2013-02-06 04:46:00,26.2,14.3,29.91,East,95,0.0,0.0,60,0.00,,---,0.00,VWS V14.01,2013-02-06 09:46:00,
2013-02-06 04:51:00,26.2,14.3,29.91,East,95,0.0,0.0,60,0.00,,---,0.00,VWS V14.01,2013-02-06 09:51:00,
2013-02-06 04:56:00,26.4,14.4,29.91,East,96,0.0,0.0,60,0.00,,---,0.00,VWS V14.01,2013-02-06 09:56:00,
2013-02-06 05:01:00,26.4,14.4,29.91,East,95,0.0,3.1,60,0.00,,---,0.00,VWS V14.01,2013-02-06 10:01:00,
2013-02-06 05:06:00,26.4,14.4,29.91,East,95,2.7,3.1,60,0.00,,---,0.00,VWS V14.01,2013-02-06 10:06:00,
2013-02-06 05:11:00,26.4,14.8,29.91,East,95,3.6,4.5,61,0.00,,---,0.00,VWS V14.01,2013-02-06 10:11:00,
2013-02-06 05:16:00,26.4,14.8,29.91,East,95,4.9,4.9,61,0.00,,---,0.00,VWS V14.01,2013-02-06 10:16:00,
2013-02-06 05:21:00,26.6,15.0,29.94,East,95,0.0,0.0,61,0.00,,---,0.00,VWS V14.01,2013-02-06 10:21:00,
2013-02-06 05:26:00,26.6,15.0,29.94,East,95,0.0,0.0,61,0.00,,---,0.00,VWS V14.01,2013-02-06 10:26:00,
2013-02-06 05:31:00,26.6,15.0,29.94,East,95,0.0,2.7,61,0.00,,---,0.00,VWS V14.01,2013-02-06 10:31:00,
2013-02-06 05:36:00,26.6,15.0,29.94,East,96,0.0,3.1,61,0.00,,---,0.00,VWS V14.01,2013-02-06 10:36:00,
2013-02-06 05:41:00,26.4,14.8,29.94,East,95,0.0,2.7,61,0.00,,---,0.00,VWS V14.01,2013-02-06 10:41:00,
2013-02-06 05:46:00,26.2,14.6,29.94,East,95,0.0,0.0,61,0.00,,---,0.00,VWS V14.01,2013-02-06 10:46:00,
2013-02-06 05:51:00,26.2,14.6,29.94,East,95,2.7,5.8,61,0.00,,---,0.00,VWS V14.01,2013-02-06 10:51:00,
2013-02-06 05:56:00,26.1,14.5,29.94,East,96,3.6,4.0,61,0.00,,---,0.00,VWS V14.01,2013-02-06 10:56:00,
2013-02-06 06:02:00,26.1,14.5,29.94,East,95,0.0,4.9,61,0.00,,---,0.00,VWS V14.01,2013-02-06 11:02:00,
2013-02-06 06:07:00,26.1,14.5,29.94,WNW,283,3.1,3.6,61,0.00,,---,0.00,VWS V14.01,2013-02-06 11:07:00,
2013-02-06 06:12:00,25.9,14.3,29.94,West,276,0.0,3.6,61,0.00,,---,0.00,VWS V14.01,2013-02-06 11:12:00,
2013-02-06 06:17:00,25.7,14.1,29.94,West,276,0.0,2.7,61,0.00,,---,0.00,VWS V14.01,2013-02-06 11:17:00,
2013-02-06 06:22:00,25.5,14.0,29.94,West,276,0.0,3.1,61,0.00,,---,0.00,VWS V14.01,2013-02-06 11:22:00,
2013-02-06 06:27:00,25.5,14.0,29.94,West,277,3.6,4.0,61,0.00,,---,0.00,VWS V14.01,2013-02-06 11:27:00,
2013-02-06 06:32:00,25.3,13.8,29.94,West,276,3.1,4.5,61,0.00,,---,0.00,VWS V14.01,2013-02-06 11:32:00,
2013-02-06 06:37:00,25.2,13.6,29.97,West,277,0.0,3.6,61,0.00,,---,0.00,VWS V14.01,2013-02-06 11:37:00,
2013-02-06 06:42:00,24.8,13.3,29.97,West,276,3.1,3.1,61,0.00,,---,0.00,VWS V14.01,2013-02-06 11:42:00,
2013-02-06 06:47:00,24.6,13.1,29.97,West,277,0.0,3.1,61,0.00,,---,0.00,VWS V14.01,2013-02-06 11:47:00,
2013-02-06 06:52:00,24.1,12.6,29.97,West,276,0.0,0.0,61,0.00,,---,0.00,VWS V14.01,2013-02-06 11:52:00,
2013-02-06 06:57:00,23.9,12.4,29.97,West,277,0.0,0.0,61,0.00,,---,0.00,VWS V14.01,2013-02-06 11:57:00,
2013-02-06 07:02:00,23.9,12.4,29.97,West,276,3.6,3.6,61,0.00,,---,0.00,VWS V14.01,2013-02-06 12:02:00,
2013-02-06 07:07:00,23.5,12.1,29.97,West,276,3.6,5.4,61,0.00,,---,0.00,VWS V14.01,2013-02-06 12:07:00,
2013-02-06 07:12:00,23.7,12.6,29.97,SW,233,3.1,6.3,62,0.00,,---,0.00,VWS V14.01,2013-02-06 12:12:00,
2013-02-06 07:17:00,23.9,12.8,29.97,SW,232,0.0,3.1,62,0.00,,---,0.00,VWS V14.01,2013-02-06 12:17:00,
2013-02-06 07:22:00,23.5,12.4,29.97,SW,232,3.6,3.6,62,0.00,,---,0.00,VWS V14.01,2013-02-06 12:22:00,
2013-02-06 07:27:00,23.4,12.3,29.97,SW,233,0.0,0.0,62,0.00,,---,0.00,VWS V14.01,2013-02-06 12:27:00,
2013-02-06 07:32:00,23.5,12.4,29.97,SW,232,0.0,0.0,62,0.00,,---,0.00,VWS V14.01,2013-02-06 12:32:00,
2013-02-06 07:37:00,23.5,12.8,29.97,SW,233,0.0,0.0,63,0.00,,---,0.00,VWS V14.01,2013-02-06 12:37:00,
2013-02-06 07:42:00,23.5,12.8,29.97,SW,233,0.0,2.7,63,0.00,,---,0.00,VWS V14.01,2013-02-06 12:42:00,
2013-02-06 07:47:00,23.7,13.0,29.97,SW,232,0.0,0.0,63,0.00,,---,0.00,VWS V14.01,2013-02-06 12:47:00,
2013-02-06 07:52:00,23.9,13.1,30.00,SW,233,0.0,0.0,63,0.00,,---,0.00,VWS V14.01,2013-02-06 12:52:00,
2013-02-06 07:57:00,24.4,14.0,30.00,SW,232,0.0,0.0,64,0.00,,---,0.00,VWS V14.01,2013-02-06 12:57:00,
2013-02-06 08:02:00,25.2,15.1,30.00,SW,233,0.0,3.6,65,0.00,,---,0.00,VWS V14.01,2013-02-06 13:02:00,
2013-02-06 08:07:00,25.5,15.4,30.03,SW,233,0.0,2.7,65,0.00,,---,0.00,VWS V14.01,2013-02-06 13:07:00,
2013-02-06 08:12:00,25.9,15.8,30.03,SW,233,2.7,2.7,65,0.00,,---,0.00,VWS V14.01,2013-02-06 13:12:00,
2013-02-06 08:17:00,26.4,16.6,30.03,SW,233,3.1,3.6,66,0.00,,---,0.00,VWS V14.01,2013-02-06 13:17:00,
2013-02-06 08:22:00,26.6,16.4,30.03,WSW,249,0.0,6.7,65,0.00,,---,0.00,VWS V14.01,2013-02-06 13:22:00,
2013-02-06 08:27:00,27.1,17.3,30.03,WSW,249,0.0,3.6,66,0.00,,---,0.00,VWS V14.01,2013-02-06 13:27:00,
2013-02-06 08:33:00,27.7,17.8,30.03,WSW,250,0.0,3.1,66,0.00,,---,0.00,VWS V14.01,2013-02-06 13:33:00,
2013-02-06 08:38:00,28.0,18.2,30.03,WSW,250,3.1,3.6,66,0.00,,---,0.04,VWS V14.01,2013-02-06 13:38:00,
2013-02-06 08:43:00,28.0,18.2,30.03,WSW,250,0.0,5.4,66,0.00,,---,0.00,VWS V14.01,2013-02-06 13:43:00,
2013-02-06 08:48:00,28.4,18.5,30.03,WSW,249,4.5,5.8,66,0.00,,---,0.00,VWS V14.01,2013-02-06 13:48:00,
2013-02-06 08:53:00,28.4,18.5,30.03,WSW,249,4.9,5.4,66,0.00,,---,0.00,VWS V14.01,2013-02-06 13:53:00,
2013-02-06 08:58:00,28.8,18.9,30.03,WSW,250,4.0,6.7,66,0.00,,---,0.00,VWS V14.01,2013-02-06 13:58:00,
2013-02-06 09:03:00,28.9,19.0,30.03,WSW,250,4.5,4.5,66,0.00,,---,0.00,VWS V14.01,2013-02-06 14:03:00,
2013-02-06 09:08:00,29.7,19.7,30.03,WSW,250,4.0,4.0,66,0.00,,---,0.00,VWS V14.01,2013-02-06 14:08:00,
2013-02-06 09:13:00,30.0,20.0,30.03,WSW,250,2.7,4.5,66,0.00,,---,0.00,VWS V14.01,2013-02-06 14:13:00,
2013-02-06 09:18:00,30.4,20.0,30.03,West,274,2.7,6.9,65,0.00,,---,0.00,VWS V14.01,2013-02-06 14:18:00,
2013-02-06 09:23:00,31.3,20.9,30.03,WNW,296,4.9,6.7,65,0.00,,---,0.00,VWS V14.01,2013-02-06 14:23:00,
2013-02-06 09:28:00,31.8,21.0,30.03,WNW,296,4.5,4.5,64,0.00,,---,0.00,VWS V14.01,2013-02-06 14:28:00,
2013-02-06 09:33:00,32.4,20.8,30.03,WSW,238,5.4,6.3,62,0.00,,---,0.00,VWS V14.01,2013-02-06 14:33:00,
2013-02-06 09:38:00,33.1,20.7,30.03,WSW,239,4.5,5.4,60,0.00,,---,0.00,VWS V14.01,2013-02-06 14:38:00,
2013-02-06 09:43:00,33.8,19.8,30.03,WNW,289,4.9,7.8,56,0.00,,---,0.00,VWS V14.01,2013-02-06 14:43:00,
2013-02-06 09:48:00,34.7,19.3,30.03,SW,223,6.3,6.3,53,0.00,,---,0.00,VWS V14.01,2013-02-06 14:48:00,
2013-02-06 09:53:00,35.1,17.4,30.03,SW,226,2.7,8.3,48,0.00,,---,0.00,VWS V14.01,2013-02-06 14:53:00,
2013-02-06 09:58:00,35.1,14.8,30.03,West,267,6.9,12.1,43,0.00,,---,0.00,VWS V14.01,2013-02-06 14:58:00,
2013-02-06 10:03:00,35.6,14.2,30.03,NW,307,5.8,9.6,41,0.00,,---,0.00,VWS V14.01,2013-02-06 15:03:00,
2013-02-06 10:08:00,36.3,14.3,30.03,WNW,284,6.3,11.2,40,0.00,,---,0.00,VWS V14.01,2013-02-06 15:08:00,
2013-02-06 10:13:00,37.2,14.6,30.03,SW,225,5.4,10.1,39,0.00,,---,0.00,VWS V14.01,2013-02-06 15:13:00,
2013-02-06 10:18:00,37.9,13.4,30.03,WSW,252,7.4,15.2,36,0.00,,---,0.00,VWS V14.01,2013-02-06 15:18:00,
2013-02-06 10:23:00,38.8,14.8,30.06,WNW,300,9.6,9.6,37,0.00,,---,0.00,VWS V14.01,2013-02-06 15:23:00,
2013-02-06 10:28:00,38.1,13.5,30.06,NW,306,4.9,11.0,36,0.00,,---,0.00,VWS V14.01,2013-02-06 15:28:00,
2013-02-06 10:33:00,36.9,10.5,30.06,West,267,11.2,11.6,33,0.00,,---,0.00,VWS V14.01,2013-02-06 15:33:00,
2013-02-06 10:38:00,36.3,10.0,30.06,West,278,3.1,7.4,33,0.00,,---,0.00,VWS V14.01,2013-02-06 15:38:00,
2013-02-06 10:43:00,36.3,10.0,30.06,WSW,241,2.7,4.9,33,0.00,,---,0.00,VWS V14.01,2013-02-06 15:43:00,
2013-02-06 10:48:00,36.3,9.3,30.06,WNW,293,4.9,6.7,32,0.00,,---,0.00,VWS V14.01,2013-02-06 15:48:00,
2013-02-06 10:53:00,37.2,10.1,30.06,West,275,11.0,11.6,32,0.00,,---,0.00,VWS V14.01,2013-02-06 15:53:00,
2013-02-06 10:58:00,38.3,11.0,30.06,NW,308,5.4,13.0,32,0.00,,---,0.00,VWS V14.01,2013-02-06 15:58:00,
2013-02-06 11:03:00,39.6,12.1,30.06,NW,304,6.3,7.4,32,0.00,,---,0.00,VWS V14.01,2013-02-06 16:03:00,
2013-02-06 11:08:00,39.2,11.1,30.03,West,266,8.7,11.0,31,0.00,,---,0.00,VWS V14.01,2013-02-06 16:08:00,
2013-02-06 11:13:00,37.6,9.0,30.03,NW,308,4.5,16.3,30,0.00,,---,0.00,VWS V14.01,2013-02-06 16:13:00,
2013-02-06 11:18:00,36.9,8.3,30.03,NW,304,6.7,16.3,30,0.00,,---,0.00,VWS V14.01,2013-02-06 16:18:00,
2013-02-06 11:23:00,36.1,7.7,30.03,NW,308,4.0,15.2,30,0.00,,---,0.00,VWS V14.01,2013-02-06 16:23:00,
2013-02-06 11:28:00,37.2,8.6,30.03,West,268,0.0,8.7,30,0.00,,---,0.00,VWS V14.01,2013-02-06 16:28:00,
2013-02-06 11:33:00,38.5,9.8,30.03,NW,304,8.7,12.1,30,0.00,,---,0.00,VWS V14.01,2013-02-06 16:33:00,
2013-02-06 11:38:00,39.6,10.7,30.03,NW,318,3.6,9.2,30,0.00,,---,0.00,VWS V14.01,2013-02-06 16:38:00,
2013-02-06 11:43:00,40.3,10.6,30.03,WNW,298,4.0,5.4,29,0.00,,---,0.00,VWS V14.01,2013-02-06 16:43:00,
2013-02-06 11:48:00,40.1,9.6,30.03,West,269,10.1,10.1,28,0.00,,---,0.00,VWS V14.01,2013-02-06 16:48:00,
2013-02-06 11:53:00,40.3,10.6,30.03,North,1,5.4,11.6,29,0.00,,---,0.00,VWS V14.01,2013-02-06 16:53:00,
2013-02-06 11:58:00,40.3,9.8,30.03,NNW,327,5.8,14.3,28,0.00,,---,0.00,VWS V14.01,2013-02-06 16:58:00,
2013-02-06 12:03:00,39.4,7.4,30.03,West,280,7.4,10.1,26,0.00,,---,0.00,VWS V14.01,2013-02-06 17:03:00,
2013-02-06 12:08:00,40.5,9.9,30.03,WNW,294,8.7,11.6,28,0.00,,---,0.00,VWS V14.01,2013-02-06 17:08:00,
2013-02-06 12:13:00,39.7,5.0,30.03,NNE,26,2.7,11.0,23,0.00,,---,0.00,VWS V14.01,2013-02-06 17:13:00,
2013-02-06 12:18:00,39.2,4.5,30.03,WNW,300,0.0,8.7,23,0.00,,---,0.00,VWS V14.01,2013-02-06 17:18:00,
2013-02-06 12:23:00,38.1,4.5,30.03,WNW,287,8.3,9.2,24,0.00,,---,0.00,VWS V14.01,2013-02-06 17:23:00,
2013-02-06 12:28:00,37.6,4.1,30.03,NW,312,4.9,13.9,24,0.00,,---,0.00,VWS V14.01,2013-02-06 17:28:00,
2013-02-06 12:33:00,37.6,4.1,30.03,WNW,301,10.1,16.8,24,0.00,,---,0.00,VWS V14.01,2013-02-06 17:33:00,
2013-02-06 12:38:00,37.2,3.8,30.03,NW,309,12.5,15.9,24,0.00,,---,0.00,VWS V14.01,2013-02-06 17:38:00,
2013-02-06 12:43:00,36.9,3.5,30.03,WNW,288,4.9,10.1,24,0.00,,---,0.00,VWS V14.01,2013-02-06 17:43:00,
2013-02-06 12:48:00,36.9,3.5,30.03,WSW,255,4.0,13.4,24,0.00,,---,0.00,VWS V14.01,2013-02-06 17:48:00,
2013-02-06 12:53:00,36.7,3.3,30.06,WNW,293,5.4,10.5,24,0.00,,---,0.00,VWS V14.01,2013-02-06 17:53:00,
2013-02-06 12:58:00,36.3,3.0,30.06,North,356,3.6,11.2,24,0.00,,---,0.00,VWS V14.01,2013-02-06 17:58:00,
2013-02-06 13:03:00,36.1,2.8,30.06,WNW,301,4.9,17.2,24,0.00,,---,0.00,VWS V14.01,2013-02-06 18:03:00,
2013-02-06 13:08:00,36.1,2.8,30.03,West,273,6.9,12.1,24,0.00,,---,0.00,VWS V14.01,2013-02-06 18:08:00,
2013-02-06 13:13:00,36.1,2.8,30.03,WNW,287,11.2,13.9,24,0.00,,---,0.00,VWS V14.01,2013-02-06 18:13:00,
2013-02-06 13:18:00,36.1,2.8,30.03,NNE,17,5.8,10.5,24,0.00,,---,0.00,VWS V14.01,2013-02-06 18:18:00,
2013-02-06 13:23:00,36.3,3.0,30.06,NW,318,4.0,11.6,24,0.00,,---,0.00,VWS V14.01,2013-02-06 18:23:00,
2013-02-06 13:28:00,37.0,3.6,30.06,WNW,290,7.8,14.8,24,0.00,,---,0.00,VWS V14.01,2013-02-06 18:28:00,
2013-02-06 13:33:00,37.9,4.4,30.06,NW,318,5.4,12.1,24,0.00,,---,0.00,VWS V14.01,2013-02-06 18:33:00,
2013-02-06 13:38:00,38.7,4.1,30.06,WNW,282,7.8,14.8,23,0.00,,---,0.00,VWS V14.01,2013-02-06 18:38:00,
2013-02-06 13:43:00,38.5,3.9,30.06,West,281,11.0,13.0,23,0.00,,---,0.00,VWS V14.01,2013-02-06 18:43:00,
2013-02-06 13:48:00,38.7,4.1,30.06,West,275,13.0,16.3,23,0.00,,---,0.00,VWS V14.01,2013-02-06 18:48:00,
2013-02-06 13:53:00,38.3,1.8,30.06,WNW,299,9.2,21.0,21,0.00,,---,0.00,VWS V14.01,2013-02-06 18:53:00,
2013-02-06 13:58:00,38.1,1.6,30.06,NW,310,3.6,14.8,21,0.00,,---,0.00,VWS V14.01,2013-02-06 18:58:00,
2013-02-06 14:03:00,37.6,1.2,30.06,WNW,298,14.3,16.8,21,0.00,,---,0.00,VWS V14.01,2013-02-06 19:03:00,
2013-02-06 14:08:00,37.2,0.9,30.06,NW,305,4.5,17.2,21,0.00,,---,0.00,VWS V14.01,2013-02-06 19:08:00,
2013-02-06 14:13:00,37.2,0.9,30.06,NW,315,7.8,13.9,21,0.00,,---,0.00,VWS V14.01,2013-02-06 19:13:00,
2013-02-06 14:19:00,38.1,1.6,30.06,NW,304,4.0,11.6,21,0.00,,---,0.00,VWS V14.01,2013-02-06 19:19:00,
2013-02-06 14:24:00,38.8,2.3,30.06,NNW,342,2.7,15.2,21,0.00,,---,0.00,VWS V14.01,2013-02-06 19:24:00,
2013-02-06 14:29:00,39.0,2.4,30.06,NW,323,12.1,15.9,21,0.00,,---,0.00,VWS V14.01,2013-02-06 19:29:00,
2013-02-06 14:34:00,39.7,3.0,30.06,WNW,296,11.0,14.3,21,0.00,,---,0.00,VWS V14.01,2013-02-06 19:34:00,
2013-02-06 14:39:00,39.4,2.7,30.06,NW,318,12.1,15.4,21,0.00,,---,0.00,VWS V14.01,2013-02-06 19:39:00,
2013-02-06 14:44:00,39.0,-0.9,30.06,West,278,6.3,15.9,18,0.00,,---,0.00,VWS V14.01,2013-02-06 19:44:00,
2013-02-06 14:49:00,39.4,-0.6,30.06,WNW,290,6.9,12.1,18,0.00,,---,0.00,VWS V14.01,2013-02-06 19:49:00,
2013-02-06 14:54:00,39.0,-0.9,30.06,West,266,4.9,15.4,18,0.00,,---,0.00,VWS V14.01,2013-02-06 19:54:00,
2013-02-06 14:59:00,39.4,-0.6,30.06,NW,308,4.5,7.8,18,0.00,,---,0.00,VWS V14.01,2013-02-06 19:59:00,
2013-02-06 15:04:00,39.9,-0.1,30.06,WNW,284,7.4,8.3,18,0.00,,---,0.00,VWS V14.01,2013-02-06 20:04:00,
2013-02-06 15:09:00,39.9,-0.1,30.06,WNW,298,11.2,15.2,18,0.00,,---,0.00,VWS V14.01,2013-02-06 20:09:00,
2013-02-06 15:14:00,39.4,-0.6,30.06,WNW,293,9.6,13.0,18,0.00,,---,0.00,VWS V14.01,2013-02-06 20:14:00,
2013-02-06 15:19:00,38.8,-1.0,30.06,WSW,257,14.8,17.7,18,0.00,,---,0.00,VWS V14.01,2013-02-06 20:19:00,
2013-02-06 15:24:00,38.5,-1.3,30.09,West,272,3.6,14.8,18,0.00,,---,0.00,VWS V14.01,2013-02-06 20:24:00,
2013-02-06 15:29:00,38.3,-0.3,30.09,West,261,13.4,14.3,19,0.00,,---,0.00,VWS V14.01,2013-02-06 20:29:00,
2013-02-06 15:34:00,37.9,-0.6,30.09,NE,36,4.9,14.8,19,0.00,,---,0.00,VWS V14.01,2013-02-06 20:34:00,
2013-02-06 15:39:00,37.2,-1.2,30.09,WNW,288,11.2,17.2,19,0.00,,---,0.00,VWS V14.01,2013-02-06 20:39:00,
2013-02-06 15:44:00,36.5,-1.8,30.09,WSW,257,11.0,16.3,19,0.00,,---,0.00,VWS V14.01,2013-02-06 20:44:00,
2013-02-06 15:49:00,36.7,-1.7,30.09,NW,312,6.9,19.9,19,0.00,,---,0.00,VWS V14.01,2013-02-06 20:49:00,
2013-02-06 15:54:00,36.7,-1.7,30.09,WNW,282,10.1,18.6,19,0.00,,---,0.00,VWS V14.01,2013-02-06 20:54:00,
2013-02-06 15:59:00,36.9,-1.5,30.09,WSW,245,6.7,19.9,19,0.00,,---,0.00,VWS V14.01,2013-02-06 20:59:00,
2013-02-06 16:04:00,37.0,-1.4,30.09,WNW,294,4.9,15.2,19,0.00,,---,0.00,VWS V14.01,2013-02-06 21:04:00,
2013-02-06 16:09:00,37.4,-1.1,30.09,West,275,6.7,11.0,19,0.00,,---,0.00,VWS V14.01,2013-02-06 21:09:00,
2013-02-06 16:14:00,37.6,-0.9,30.09,NW,304,11.0,14.8,19,0.00,,---,0.00,VWS V14.01,2013-02-06 21:14:00,
2013-02-06 16:19:00,37.4,-4.7,30.09,WNW,298,10.1,12.5,16,0.00,,---,0.00,VWS V14.01,2013-02-06 21:19:00,
2013-02-06 16:24:00,37.4,-4.7,30.09,WNW,298,3.6,18.1,16,0.00,,---,0.00,VWS V14.01,2013-02-06 21:24:00,
2013-02-06 16:29:00,37.2,-4.8,30.09,WNW,283,5.8,11.2,16,0.00,,---,0.00,VWS V14.01,2013-02-06 21:29:00,
2013-02-06 16:34:00,37.0,-5.0,30.09,WSW,251,3.1,6.7,16,0.00,,---,0.00,VWS V14.01,2013-02-06 21:34:00,
2013-02-06 16:39:00,36.9,-5.1,30.12,West,276,7.8,9.6,16,0.00,,---,0.00,VWS V14.01,2013-02-06 21:39:00,
2013-02-06 16:44:00,36.9,-5.1,30.12,NW,322,3.1,6.3,16,0.00,,---,0.00,VWS V14.01,2013-02-06 21:44:00,
2013-02-06 16:49:00,36.5,-5.4,30.12,WNW,286,9.6,13.0,16,0.00,,---,0.00,VWS V14.01,2013-02-06 21:49:00,
2013-02-06 16:54:00,36.1,-4.5,30.12,WNW,295,4.9,8.7,17,0.00,,---,0.00,VWS V14.01,2013-02-06 21:54:00,
2013-02-06 16:59:00,35.8,-4.8,30.12,NW,309,3.6,5.4,17,0.00,,---,0.00,VWS V14.01,2013-02-06 21:59:00,
2013-02-06 17:04:00,35.4,-5.1,30.12,NW,325,4.5,8.7,17,0.00,,---,0.00,VWS V14.01,2013-02-06 22:04:00,
2013-02-06 17:09:00,35.1,-5.3,30.12,West,265,2.7,6.7,17,0.00,,---,0.00,VWS V14.01,2013-02-06 22:09:00,
2013-02-06 17:14:00,34.7,-5.6,30.12,West,261,4.9,14.3,17,0.00,,---,0.00,VWS V14.01,2013-02-06 22:14:00,
2013-02-06 17:19:00,34.3,-5.9,30.12,WNW,283,5.4,11.0,17,0.00,,---,0.00,VWS V14.01,2013-02-06 22:19:00,
2013-02-06 17:24:00,34.0,-6.2,30.15,NW,319,3.1,6.7,17,0.00,,---,0.00,VWS V14.01,2013-02-06 22:24:00,
2013-02-06 17:29:00,33.8,-6.4,30.15,WNW,287,2.7,6.9,17,0.00,,---,0.00,VWS V14.01,2013-02-06 22:29:00,
2013-02-06 17:35:00,33.4,-6.7,30.15,NNW,331,0.0,6.3,17,0.00,,---,0.00,VWS V14.01,2013-02-06 22:35:00,
2013-02-06 17:40:00,33.3,-6.8,30.15,NW,305,3.1,9.6,17,0.00,,---,0.00,VWS V14.01,2013-02-06 22:40:00,
2013-02-06 17:45:00,33.1,-7.0,30.15,NW,312,0.0,8.3,17,0.00,,---,0.00,VWS V14.01,2013-02-06 22:45:00,
2013-02-06 17:50:00,33.1,-7.0,30.15,WNW,291,7.4,13.4,17,0.00,,---,0.00,VWS V14.01,2013-02-06 22:50:00,
2013-02-06 17:55:00,32.9,-5.9,30.18,West,273,4.9,12.1,18,0.00,,---,0.00,VWS V14.01,2013-02-06 22:55:00,
2013-02-06 18:00:00,32.7,-6.1,30.18,WNW,299,8.7,11.2,18,0.00,,---,0.00,VWS V14.01,2013-02-06 23:00:00,
2013-02-06 18:05:00,32.5,-6.2,30.18,West,263,9.2,14.3,18,0.00,,---,0.00,VWS V14.01,2013-02-06 23:05:00,
2013-02-06 18:10:00,32.4,-6.4,30.18,NNW,329,6.3,16.8,18,0.00,,---,0.00,VWS V14.01,2013-02-06 23:10:00,
2013-02-06 18:15:00,32.2,-6.6,30.18,West,277,4.0,13.4,18,0.00,,---,0.00,VWS V14.01,2013-02-06 23:15:00,
2013-02-06 18:20:00,32.2,-6.6,30.18,West,275,7.8,9.6,18,0.00,,---,0.00,VWS V14.01,2013-02-06 23:20:00,
2013-02-06 18:25:00,32.0,-6.7,30.18,NW,305,3.6,7.8,18,0.00,,---,0.00,VWS V14.01,2013-02-06 23:25:00,
2013-02-06 18:30:00,31.8,-6.8,30.18,WNW,291,0.0,6.9,18,0.00,,---,0.00,VWS V14.01,2013-02-06 23:30:00,
2013-02-06 18:35:00,31.5,-7.2,30.18,WNW,294,0.0,6.3,18,0.00,,---,0.00,VWS V14.01,2013-02-06 23:35:00,
2013-02-06 18:40:00,31.5,-7.2,30.21,WNW,294,5.4,6.3,18,0.00,,---,0.00,VWS V14.01,2013-02-06 23:40:00,
2013-02-06 18:45:00,31.3,-7.3,30.21,WNW,289,0.0,6.9,18,0.00,,---,0.00,VWS V14.01,2013-02-06 23:45:00,
2013-02-06 18:50:00,31.1,-7.4,30.21,NW,311,4.5,6.9,18,0.00,,---,0.00,VWS V14.01,2013-02-06 23:50:00,
2013-02-06 18:55:00,30.9,-7.6,30.21,NW,304,3.1,9.6,18,0.00,,---,0.00,VWS V14.01,2013-02-06 23:55:00,
2013-02-06 19:00:00,30.9,-7.6,30.21,NW,304,0.0,4.9,18,0.00,,---,0.00,VWS V14.01,2013-02-07 00:00:00,
2013-02-06 19:05:00,30.6,-7.9,30.21,NW,304,0.0,4.5,18,0.00,,---,0.00,VWS V14.01,2013-02-07 00:05:00,
2013-02-06 19:10:00,30.4,-8.0,30.21,NW,304,0.0,3.1,18,0.00,,---,0.00,VWS V14.01,2013-02-07 00:10:00,
2013-02-06 19:15:00,30.0,-8.3,30.21,WNW,289,6.3,8.7,18,0.00,,---,0.00,VWS V14.01,2013-02-07 00:15:00,
2013-02-06 19:20:00,30.0,-8.3,30.21,West,273,7.4,9.6,18,0.00,,---,0.00,VWS V14.01,2013-02-07 00:20:00,
2013-02-06 19:25:00,30.0,-8.3,30.24,WNW,293,0.0,9.2,18,0.00,,---,0.00,VWS V14.01,2013-02-07 00:25:00,
2013-02-06 19:30:00,30.0,-8.3,30.24,WNW,298,3.6,9.6,18,0.00,,---,0.00,VWS V14.01,2013-02-07 00:30:00,
2013-02-06 19:35:00,30.0,-8.3,30.24,West,279,3.6,6.7,18,0.00,,---,0.00,VWS V14.01,2013-02-07 00:35:00,
2013-02-06 19:40:00,29.8,-8.5,30.24,WNW,296,5.4,5.4,18,0.00,,---,0.00,VWS V14.01,2013-02-07 00:40:00,
2013-02-06 19:45:00,29.8,-8.5,30.24,WNW,301,2.7,3.6,18,0.00,,---,0.00,VWS V14.01,2013-02-07 00:45:00,
2013-02-06 19:50:00,29.8,-8.5,30.24,WNW,300,3.6,4.9,18,0.00,,---,0.00,VWS V14.01,2013-02-07 00:50:00,
2013-02-06 19:55:00,29.7,-8.6,30.24,WSW,252,4.9,6.9,18,0.00,,---,0.00,VWS V14.01,2013-02-07 00:55:00,
2013-02-06 20:00:00,29.7,-8.6,30.24,WNW,294,3.6,4.0,18,0.00,,---,0.00,VWS V14.01,2013-02-07 01:00:00,
2013-02-06 20:05:00,29.7,-8.6,30.24,WSW,246,8.3,8.3,18,0.00,,---,0.00,VWS V14.01,2013-02-07 01:05:00,
2013-02-06 20:10:00,29.5,-8.8,30.24,NNW,347,3.1,3.1,18,0.00,,---,0.00,VWS V14.01,2013-02-07 01:10:00,
2013-02-06 20:15:00,29.5,-8.8,30.24,NNW,332,0.0,0.0,18,0.00,,---,0.00,VWS V14.01,2013-02-07 01:15:00,
2013-02-06 20:20:00,29.3,-8.9,30.24,NNW,330,3.6,3.6,18,0.00,,---,0.00,VWS V14.01,2013-02-07 01:20:00,
2013-02-06 20:25:00,29.3,-8.9,30.27,North,4,3.1,6.7,18,0.00,,---,0.00,VWS V14.01,2013-02-07 01:25:00,
2013-02-06 20:30:00,29.1,-9.1,30.27,WNW,295,4.5,4.5,18,0.00,,---,0.00,VWS V14.01,2013-02-07 01:30:00,
2013-02-06 20:35:00,28.9,-9.2,30.27,NNW,335,5.8,5.8,18,0.00,,---,0.00,VWS V14.01,2013-02-07 01:35:00,
2013-02-06 20:40:00,28.8,-9.4,30.27,NW,314,0.0,0.0,18,0.00,,---,0.00,VWS V14.01,2013-02-07 01:40:00,
2013-02-06 20:45:00,28.8,-9.4,30.27,WNW,282,2.7,4.0,18,0.00,,---,0.00,VWS V14.01,2013-02-07 01:45:00,
2013-02-06 20:50:00,28.6,-9.5,30.27,West,280,2.7,4.9,18,0.00,,---,0.00,VWS V14.01,2013-02-07 01:50:00,
2013-02-06 20:55:00,28.4,-9.7,30.27,North,356,3.1,3.6,18,0.00,,---,0.00,VWS V14.01,2013-02-07 01:55:00,
2013-02-06 21:00:00,28.2,-9.8,30.27,WNW,298,4.5,4.9,18,0.00,,---,0.00,VWS V14.01,2013-02-07 02:00:00,
2013-02-06 21:05:00,28.0,-10.0,30.27,WNW,299,0.0,3.1,18,0.00,,---,0.00,VWS V14.01,2013-02-07 02:05:00,
2013-02-06 21:10:00,28.0,-10.0,30.27,NNE,18,4.9,5.8,18,0.00,,---,0.00,VWS V14.01,2013-02-07 02:10:00,
2013-02-06 21:15:00,28.0,-10.0,30.27,North,9,4.0,4.9,18,0.00,,---,0.00,VWS V14.01,2013-02-07 02:15:00,
2013-02-06 21:20:00,27.9,-10.1,30.27,North,356,7.4,7.4,18,0.00,,---,0.00,VWS V14.01,2013-02-07 02:20:00,
2013-02-06 21:25:00,27.9,-10.1,30.27,North,351,0.0,0.0,18,0.00,,---,0.00,VWS V14.01,2013-02-07 02:25:00,
2013-02-06 21:30:00,27.5,-10.4,30.27,North,351,4.0,5.8,18,0.00,,---,0.00,VWS V14.01,2013-02-07 02:30:00,
2013-02-06 21:35:00,27.5,-10.4,30.27,North,351,4.9,4.9,18,0.00,,---,0.00,VWS V14.01,2013-02-07 02:35:00,
2013-02-06 21:40:00,27.3,-9.5,30.30,North,351,0.0,2.7,19,0.00,,---,0.00,VWS V14.01,2013-02-07 02:40:00,
2013-02-06 21:45:00,27.1,-9.6,30.30,North,351,3.1,3.6,19,0.00,,---,0.00,VWS V14.01,2013-02-07 02:45:00,
2013-02-06 21:50:00,27.0,-9.8,30.30,NNE,28,6.9,6.9,19,0.00,,---,0.00,VWS V14.01,2013-02-07 02:50:00,
2013-02-06 21:55:00,27.0,-9.8,30.30,NNE,29,4.5,5.4,19,0.00,,---,0.00,VWS V14.01,2013-02-07 02:55:00,
2013-02-06 22:00:00,26.8,-9.9,30.30,NNE,29,4.0,4.0,19,0.00,,---,0.00,VWS V14.01,2013-02-07 03:00:00,
2013-02-06 22:05:00,26.6,-10.1,30.30,NNE,24,2.7,3.6,19,0.00,,---,0.00,VWS V14.01,2013-02-07 03:05:00,
2013-02-06 22:10:00,26.6,-10.1,30.30,NNE,23,4.5,4.9,19,0.00,,---,0.00,VWS V14.01,2013-02-07 03:10:00,
2013-02-06 22:15:00,26.4,-10.2,30.30,NNE,24,0.0,4.5,19,0.00,,---,0.00,VWS V14.01,2013-02-07 03:15:00,
2013-02-06 22:20:00,26.2,-10.4,30.30,NNE,23,3.1,4.0,19,0.00,,---,0.00,VWS V14.01,2013-02-07 03:20:00,
2013-02-06 22:25:00,26.2,-10.4,30.30,NNE,24,0.0,2.7,19,0.00,,---,0.00,VWS V14.01,2013-02-07 03:25:00,
2013-02-06 22:30:00,26.1,-10.5,30.30,NNE,23,4.9,4.9,19,0.00,,---,0.00,VWS V14.01,2013-02-07 03:30:00,
2013-02-06 22:35:00,26.1,-10.5,30.30,NNE,22,0.0,0.0,19,0.00,,---,0.00,VWS V14.01,2013-02-07 03:35:00,
2013-02-06 22:40:00,25.9,-10.7,30.30,NNE,22,3.1,3.1,19,0.00,,---,0.00,VWS V14.01,2013-02-07 03:40:00,
2013-02-06 22:45:00,25.9,-10.7,30.30,NNE,22,4.9,4.9,19,0.00,,---,0.00,VWS V14.01,2013-02-07 03:45:00,
2013-02-06 22:50:00,25.7,-10.9,30.30,NNE,22,2.7,4.0,19,0.00,,---,0.00,VWS V14.01,2013-02-07 03:50:00,
2013-02-06 22:55:00,25.7,-10.9,30.30,NNE,22,0.0,4.0,19,0.00,,---,0.00,VWS V14.01,2013-02-07 03:55:00,
2013-02-06 23:01:00,25.5,-11.0,30.30,NNE,22,2.7,3.1,19,0.00,,---,0.00,VWS V14.01,2013-02-07 04:01:00,
2013-02-06 23:06:00,25.3,-11.1,30.30,WSW,241,5.4,5.4,19,0.00,,---,0.00,VWS V14.01,2013-02-07 04:06:00,
2013-02-06 23:11:00,25.3,-11.1,30.30,North,351,2.7,3.1,19,0.00,,---,0.00,VWS V14.01,2013-02-07 04:11:00,
2013-02-06 23:16:00,25.2,-11.3,30.30,North,351,0.0,2.7,19,0.00,,---,0.00,VWS V14.01,2013-02-07 04:16:00,
2013-02-06 23:21:00,25.0,-13.7,30.30,North,351,0.0,3.6,17,0.00,,---,0.00,VWS V14.01,2013-02-07 04:21:00,
2013-02-06 23:26:00,24.8,-13.8,30.30,North,351,2.7,2.7,17,0.00,,---,0.00,VWS V14.01,2013-02-07 04:26:00,
2013-02-06 23:31:00,24.6,-14.0,30.30,ENE,68,2.7,6.3,17,0.00,,---,0.00,VWS V14.01,2013-02-07 04:31:00,
2013-02-06 23:36:00,24.6,-14.0,30.30,NNW,342,4.5,4.5,17,0.00,,---,0.00,VWS V14.01,2013-02-07 04:36:00,
2013-02-06 23:41:00,24.6,-14.0,30.30,North,356,3.6,7.8,17,0.00,,---,0.00,VWS V14.01,2013-02-07 04:41:00,
2013-02-06 23:46:00,24.4,-14.1,30.30,North,356,0.0,3.1,17,0.00,,---,0.00,VWS V14.01,2013-02-07 04:46:00,
2013-02-06 23:51:00,24.3,-14.3,30.33,NNE,19,0.0,6.9,17,0.00,,---,0.00,VWS V14.01,2013-02-07 04:51:00,
2013-02-06 23:56:00,24.3,-14.3,30.33,ENE,69,2.7,4.9,17,0.00,,---,0.00,VWS V14.01,2013-02-07 04:56:00,